Time;durP1;ratioP1;P1;durP2;ratioP2;P2;SDS_P1;SDS_P2;PMS_P1;PMS_P2;Temp;Humidity;BMP_temperature;BMP_pressure;BME280_temperature;BME280_humidity;BME280_pressure;Samples;Min_cycle;Max_cycle;Signal;HPM_P1;HPM_P2
2023/12/14 00:01:48;;;;;;;7.40;6.03;;;3.50;22.80;;;;;;4970087;28;20472;-56
2023/12/14 00:04:15;;;;;;;6.67;5.67;;;3.60;21.00;;;;;;4971994;28;20524;-57
2023/12/14 00:06:43;;;;;;;6.33;5.73;;;3.60;21.60;;;;;;4970126;28;20493;-58
2023/12/14 00:09:10;;;;;;;6.33;5.73;;;3.60;21.10;;;;;;4966076;28;20458;-57
2023/12/14 00:11:38;;;;;;;6.93;6.33;;;3.60;21.20;;;;;;4967816;28;20825;-57
2023/12/14 00:14:05;;;;;;;7.13;5.13;;;3.60;20.90;;;;;;4967618;28;20461;-57
2023/12/14 00:16:31;;;;;;;6.20;4.73;;;3.60;21.10;;;;;;4971097;28;20457;-57
2023/12/14 00:18:58;;;;;;;7.83;6.50;;;3.60;21.60;;;;;;4973294;28;20900;-57
2023/12/14 00:21:25;;;;;;;5.20;4.70;;;3.60;21.20;;;;;;4968272;28;20532;-58
2023/12/14 00:23:53;;;;;;;5.33;4.83;;;3.60;24.00;;;;;;4971923;28;20528;-58
2023/12/14 00:26:19;;;;;;;5.10;4.70;;;3.50;25.60;;;;;;4969293;28;20512;-56
2023/12/14 00:28:46;;;;;;;4.67;4.27;;;3.50;27.40;;;;;;4971789;28;20473;-57
2023/12/14 00:31:11;;;;;;;5.17;4.73;;;3.40;30.30;;;;;;4971922;28;20904;-58
2023/12/14 00:33:38;;;;;;;5.10;4.60;;;3.40;28.90;;;;;;4972994;28;20504;-56
2023/12/14 00:36:05;;;;;;;5.17;4.47;;;3.40;27.50;;;;;;4972162;28;20206;-57
2023/12/14 00:38:32;;;;;;;4.60;4.10;;;3.40;26.90;;;;;;4960584;28;21003;-57
2023/12/14 00:41:00;;;;;;;5.20;4.70;;;3.40;29.30;;;;;;4970902;28;20469;-57
2023/12/14 00:43:26;;;;;;;4.70;4.10;;;3.40;27.70;;;;;;4962445;28;20513;-57
2023/12/14 00:45:53;;;;;;;13.23;4.53;;;3.40;28.40;;;;;;4965418;28;20528;-56
2023/12/14 00:48:19;;;;;;;5.07;4.57;;;3.40;29.20;;;;;;4968643;28;20470;-57
2023/12/14 00:50:46;;;;;;;7.80;5.40;;;3.40;28.70;;;;;;4966382;28;20465;-56
2023/12/14 00:53:13;;;;;;;5.37;4.87;;;3.40;28.10;;;;;;4961076;28;20486;-57
2023/12/14 00:55:39;;;;;;;6.77;5.17;;;3.50;26.70;;;;;;4968692;28;20971;-58
2023/12/14 00:58:07;;;;;;;5.97;4.37;;;3.50;26.10;;;;;;4964461;28;20993;-58
2023/12/14 01:00:34;;;;;;;6.80;4.57;;;3.50;25.60;;;;;;4969026;28;20819;-58
2023/12/14 01:03:00;;;;;;;5.77;4.90;;;3.50;26.60;;;;;;4967567;28;20462;-57
2023/12/14 01:05:27;;;;;;;5.27;4.77;;;3.50;27.10;;;;;;4963250;28;20513;-57
2023/12/14 01:07:53;;;;;;;5.17;4.20;;;3.50;27.40;;;;;;4963723;28;20856;-57
2023/12/14 01:10:20;;;;;;;6.03;5.40;;;3.50;27.00;;;;;;4963773;28;20465;-57
2023/12/14 01:12:46;;;;;;;5.70;5.07;;;3.50;26.90;;;;;;4965348;28;20497;-58
2023/12/14 01:15:14;;;;;;;10.33;5.60;;;3.50;28.70;;;;;;4967543;28;20553;-57
2023/12/14 01:17:41;;;;;;;6.30;5.67;;;3.40;25.60;;;;;;4963926;28;20548;-57
2023/12/14 01:20:08;;;;;;;5.60;5.10;;;3.50;27.10;;;;;;4964978;28;20465;-57
2023/12/14 01:22:35;;;;;;;5.13;4.63;;;3.50;27.90;;;;;;4963066;28;20465;-57
2023/12/14 01:25:02;;;;;;;5.60;4.93;;;3.40;28.60;;;;;;4967345;28;21027;-57
2023/12/14 01:27:28;;;;;;;6.77;4.60;;;3.40;28.60;;;;;;4960957;28;20494;-57
2023/12/14 01:29:55;;;;;;;7.93;5.10;;;3.40;29.50;;;;;;4963126;28;20551;-59
2023/12/14 01:32:23;;;;;;;6.53;5.67;;;3.40;29.10;;;;;;4962100;28;20841;-56
2023/12/14 01:34:50;;;;;;;8.33;6.20;;;3.40;28.50;;;;;;4959449;28;20939;-57
2023/12/14 01:37:16;;;;;;;6.87;6.27;;;3.40;28.90;;;;;;4966402;28;20512;-57
2023/12/14 01:39:43;;;;;;;6.40;5.80;;;3.40;29.20;;;;;;4967555;28;20485;-57
2023/12/14 01:42:10;;;;;;;6.80;6.10;;;3.30;31.00;;;;;;4971888;28;20500;-55
2023/12/14 01:44:36;;;;;;;5.90;5.10;;;3.30;28.70;;;;;;4967877;28;20513;-56
2023/12/14 01:47:03;;;;;;;7.17;5.30;;;3.30;28.50;;;;;;4967289;28;21105;-57
2023/12/14 01:49:31;;;;;;;5.97;5.30;;;3.40;28.40;;;;;;4965151;28;20457;-56
2023/12/14 01:51:57;;;;;;;9.60;5.77;;;3.30;27.90;;;;;;4968770;28;21042;-57
2023/12/14 01:54:24;;;;;;;7.53;5.60;;;3.30;28.70;;;;;;4963960;28;20571;-57
2023/12/14 01:56:50;;;;;;;6.03;5.43;;;3.30;28.70;;;;;;4963508;28;20485;-58
2023/12/14 01:59:17;;;;;;;9.23;6.20;;;3.30;28.40;;;;;;4968129;28;20481;-56
2023/12/14 02:01:45;;;;;;;5.60;5.10;;;3.30;28.50;;;;;;4966946;28;21036;-56
2023/12/14 02:04:13;;;;;;;5.63;5.10;;;3.20;28.20;;;;;;4964220;28;20465;-58
2023/12/14 02:06:42;;;;;;;5.50;5.00;;;3.30;28.10;;;;;;4963949;28;20485;-57
2023/12/14 02:09:08;;;;;;;6.73;5.27;;;3.30;27.60;;;;;;4959426;28;20461;-56
2023/12/14 02:11:35;;;;;;;6.73;5.70;;;3.30;27.30;;;;;;4971185;28;20504;-57
2023/12/14 02:14:05;;;;;;;5.70;5.17;;;3.30;27.80;;;;;;4969642;28;20647;-56
2023/12/14 02:16:32;;;;;;;5.80;5.10;;;3.30;26.50;;;;;;4964898;28;20473;-56
2023/12/14 02:18:59;;;;;;;6.90;5.93;;;3.30;26.10;;;;;;4970157;28;20481;-57
2023/12/14 02:21:25;;;;;;;10.10;5.53;;;3.30;27.40;;;;;;4972340;28;20505;-57
2023/12/14 02:23:52;;;;;;;6.93;6.23;;;3.30;27.00;;;;;;4970940;28;20485;-57
2023/12/14 02:26:19;;;;;;;6.20;5.60;;;3.30;26.90;;;;;;4969548;28;20556;-58
2023/12/14 02:28:45;;;;;;;6.47;5.10;;;3.20;28.10;;;;;;4969411;28;20536;-58
2023/12/14 02:31:12;;;;;;;6.20;5.60;;;3.20;28.30;;;;;;4969633;28;20478;-58
2023/12/14 02:33:38;;;;;;;6.33;5.53;;;3.20;29.80;;;;;;4968306;28;20864;-55
2023/12/14 02:36:06;;;;;;;5.83;5.33;;;3.20;27.60;;;;;;4971020;28;20461;-59
2023/12/14 02:38:33;;;;;;;5.67;5.17;;;3.20;29.50;;;;;;4967056;28;20540;-58
2023/12/14 02:41:01;;;;;;;4.80;4.40;;;3.20;29.80;;;;;;4972132;28;20477;-57
2023/12/14 02:43:27;;;;;;;5.00;4.43;;;3.20;28.20;;;;;;4962505;28;20504;-57
2023/12/14 02:45:55;;;;;;;5.00;4.50;;;3.20;28.90;;;;;;4960380;28;20800;-56
2023/12/14 02:48:21;;;;;;;5.93;4.80;;;3.20;28.90;;;;;;4964381;28;21087;-57
2023/12/14 02:50:48;;;;;;;5.10;4.60;;;3.20;29.10;;;;;;4971286;28;20888;-57
2023/12/14 02:53:14;;;;;;;5.00;4.60;;;3.20;31.80;;;;;;4969857;28;21032;-58
2023/12/14 02:55:41;;;;;;;5.23;4.83;;;3.20;30.90;;;;;;4970331;28;20461;-58
2023/12/14 02:58:09;;;;;;;5.40;5.00;;;3.20;31.50;;;;;;4966955;28;20536;-57
2023/12/14 03:00:36;;;;;;;5.00;4.60;;;3.10;32.10;;;;;;4968620;28;20508;-57
2023/12/14 03:03:02;;;;;;;6.03;4.97;;;3.20;32.50;;;;;;4961160;28;20969;-56
2023/12/14 03:05:29;;;;;;;5.23;4.40;;;3.20;32.10;;;;;;4969348;28;20539;-58
2023/12/14 03:07:55;;;;;;;5.30;4.80;;;3.20;32.00;;;;;;4970864;28;20865;-57
2023/12/14 03:10:22;;;;;;;5.60;4.40;;;3.10;34.90;;;;;;4965816;28;20489;-57
2023/12/14 03:12:49;;;;;;;6.20;5.70;;;3.10;33.70;;;;;;4969414;28;20474;-58
2023/12/14 03:15:19;;;;;;;6.17;5.60;;;3.10;32.10;;;;;;4971382;28;20465;-58
2023/12/14 03:17:46;;;;;;;5.37;4.97;;;3.10;31.20;;;;;;4969835;28;20863;-57
2023/12/14 03:20:14;;;;;;;7.17;5.20;;;3.10;31.30;;;;;;4970328;28;21070;-57
2023/12/14 03:22:40;;;;;;;5.17;4.77;;;3.20;30.60;;;;;;4974238;28;20493;-57
2023/12/14 03:25:09;;;;;;;5.50;4.70;;;3.20;30.60;;;;;;4971704;28;20462;-57
2023/12/14 03:27:36;;;;;;;6.30;5.80;;;3.20;30.10;;;;;;4968014;28;21112;-57
2023/12/14 03:30:03;;;;;;;6.87;6.27;;;3.20;30.70;;;;;;4969998;28;20821;-58
2023/12/14 03:32:31;;;;;;;6.03;5.43;;;3.20;29.70;;;;;;4969249;28;20468;-58
2023/12/14 03:34:57;;;;;;;6.13;5.43;;;3.20;30.00;;;;;;4965342;28;20501;-56
2023/12/14 03:37:24;;;;;;;6.73;5.07;;;3.20;30.30;;;;;;4969459;28;20485;-56
2023/12/14 03:39:51;;;;;;;5.67;5.17;;;3.20;30.30;;;;;;4972138;28;20489;-56
2023/12/14 03:42:17;;;;;;;5.17;4.77;;;3.20;28.90;;;;;;4968347;28;20476;-57
2023/12/14 03:44:44;;;;;;;5.23;4.83;;;3.20;30.90;;;;;;4970601;28;21034;-58
2023/12/14 03:47:11;;;;;;;4.97;4.47;;;3.20;29.40;;;;;;4971176;28;20871;-59
2023/12/14 03:49:39;;;;;;;6.23;5.73;;;3.20;28.60;;;;;;4969294;28;20516;-57
2023/12/14 03:52:06;;;;;;;6.60;5.50;;;3.20;29.50;;;;;;4968876;28;20489;-58
2023/12/14 03:54:32;;;;;;;5.20;4.80;;;3.20;28.70;;;;;;4970498;28;20497;-58
2023/12/14 03:56:59;;;;;;;5.67;5.17;;;3.30;29.30;;;;;;4968163;28;20567;-57
2023/12/14 03:59:25;;;;;;;6.00;5.40;;;3.20;30.40;;;;;;4967866;28;20957;-57
2023/12/14 04:01:52;;;;;;;4.73;4.33;;;3.20;29.60;;;;;;4964691;28;21033;-57
2023/12/14 04:04:19;;;;;;;4.50;4.17;;;3.20;29.70;;;;;;4967173;28;20476;-57
2023/12/14 04:06:47;;;;;;;4.83;4.43;;;3.30;29.50;;;;;;4969913;28;20485;-59
2023/12/14 04:09:13;;;;;;;6.37;5.77;;;3.20;29.30;;;;;;4964423;28;20520;-57
2023/12/14 04:11:40;;;;;;;4.93;4.63;;;3.20;30.20;;;;;;4970425;28;20457;-59
2023/12/14 04:14:06;;;;;;;5.50;5.00;;;3.20;30.30;;;;;;4970935;28;20493;-58
2023/12/14 04:16:33;;;;;;;5.30;4.80;;;3.20;30.00;;;;;;4971361;28;20501;-58
2023/12/14 04:18:59;;;;;;;5.63;5.13;;;3.20;31.60;;;;;;4971022;28;21081;-57
2023/12/14 04:21:26;;;;;;;4.60;4.30;;;3.20;30.20;;;;;;4970598;28;20468;-57
2023/12/14 04:23:54;;;;;;;5.00;4.60;;;3.20;29.90;;;;;;4974324;28;20516;-57
2023/12/14 04:26:20;;;;;;;5.23;4.80;;;3.20;29.70;;;;;;4972500;28;20552;-57
2023/12/14 04:28:47;;;;;;;7.10;5.00;;;3.20;29.60;;;;;;4972727;28;20441;-57
2023/12/14 04:31:13;;;;;;;5.17;4.67;;;3.20;29.10;;;;;;4971222;28;20469;-56
2023/12/14 04:33:40;;;;;;;5.23;4.73;;;3.20;29.60;;;;;;4971138;28;20497;-56
2023/12/14 04:36:07;;;;;;;5.33;4.83;;;3.20;29.70;;;;;;4970268;28;20496;-57
2023/12/14 04:38:34;;;;;;;4.97;4.57;;;3.20;28.90;;;;;;4970757;28;20568;-57
2023/12/14 04:41:02;;;;;;;4.93;4.53;;;3.20;28.40;;;;;;4974324;28;20944;-57
2023/12/14 04:43:30;;;;;;;5.03;4.63;;;3.20;29.10;;;;;;4965593;28;20811;-57
2023/12/14 04:45:56;;;;;;;9.50;4.40;;;3.20;27.80;;;;;;4969624;28;20465;-57
2023/12/14 04:48:23;;;;;;;5.43;4.37;;;3.20;28.40;;;;;;4968519;28;20481;-58
2023/12/14 04:50:50;;;;;;;4.80;4.40;;;3.20;28.10;;;;;;4966276;28;20493;-58
2023/12/14 04:53:16;;;;;;;5.23;4.77;;;3.20;29.60;;;;;;4962922;28;20521;-58
2023/12/14 04:55:43;;;;;;;5.20;4.80;;;3.20;28.20;;;;;;4970317;28;20465;-57
2023/12/14 04:58:11;;;;;;;5.57;5.07;;;3.10;28.60;;;;;;4964903;28;21089;-57
2023/12/14 05:00:37;;;;;;;4.03;3.80;;;3.10;29.30;;;;;;4968637;28;20486;-57
2023/12/14 05:03:04;;;;;;;14.33;5.30;;;3.10;27.60;;;;;;4966587;28;20945;-57
2023/12/14 05:05:30;;;;;;;5.80;4.53;;;3.10;26.90;;;;;;4969205;28;20951;-57
2023/12/14 05:07:57;;;;;;;6.67;4.43;;;3.10;28.20;;;;;;4967915;28;21314;-57
2023/12/14 05:10:23;;;;;;;5.43;4.93;;;3.10;28.40;;;;;;4969358;28;20855;-57
2023/12/14 05:12:50;;;;;;;5.00;4.50;;;3.00;28.20;;;;;;4970513;28;20555;-57
2023/12/14 05:15:18;;;;;;;5.13;4.67;;;3.10;26.80;;;;;;4966537;28;20525;-57
2023/12/14 05:17:46;;;;;;;4.87;4.47;;;3.10;27.10;;;;;;4964542;28;20540;-57
2023/12/14 05:20:12;;;;;;;5.57;5.07;;;3.00;26.90;;;;;;4962787;28;20522;-57
2023/12/14 05:22:39;;;;;;;5.27;4.83;;;3.00;29.40;;;;;;4966913;28;20556;-56
2023/12/14 05:25:06;;;;;;;6.13;4.67;;;3.00;26.50;;;;;;4964422;28;20576;-58
2023/12/14 05:27:33;;;;;;;6.40;4.87;;;3.10;26.00;;;;;;4975723;23;20988;-60
2023/12/14 05:29:59;;;;;;;6.20;5.27;;;3.00;26.80;;;;;;4945082;28;21003;-60
2023/12/14 05:32:27;;;;;;;6.10;5.30;;;3.00;27.10;;;;;;4943561;28;20467;-60
2023/12/14 05:34:54;;;;;;;4.07;3.77;;;3.00;26.30;;;;;;4944387;28;20533;-60
2023/12/14 05:37:20;;;;;;;4.67;4.37;;;3.00;26.70;;;;;;4956646;28;20533;-58
2023/12/14 05:39:47;;;;;;;10.93;4.90;;;3.00;26.20;;;;;;4949973;28;21012;-61
2023/12/14 05:42:17;;;;;;;5.40;4.40;;;3.10;26.10;;;;;;4961189;28;20596;-58
2023/12/14 05:44:44;;;;;;;4.43;4.13;;;3.10;25.40;;;;;;4947588;28;21020;-60
2023/12/14 05:47:11;;;;;;;4.90;4.50;;;3.00;27.50;;;;;;4948105;28;20514;-59
2023/12/14 05:49:42;;;;;;;4.57;4.17;;;3.00;26.20;;;;;;4950046;28;20510;-59
2023/12/14 05:52:08;;;;;;;6.03;4.77;;;3.00;25.80;;;;;;4957537;28;20473;-60
2023/12/14 05:54:37;;;;;;;4.93;4.50;;;3.10;25.60;;;;;;4950330;28;20466;-60
2023/12/14 05:57:03;;;;;;;6.00;5.50;;;3.10;27.20;;;;;;4952402;28;20482;-60
2023/12/14 05:59:30;;;;;;;5.43;5.03;;;3.00;28.30;;;;;;4948371;28;20481;-60
2023/12/14 06:01:58;;;;;;;5.70;5.30;;;3.10;26.60;;;;;;4952027;28;20811;-60
2023/12/14 06:04:25;;;;;;;5.03;4.63;;;3.10;25.80;;;;;;4947564;28;20537;-61
2023/12/14 06:06:52;;;;;;;5.27;4.87;;;3.10;25.40;;;;;;4948913;28;20550;-61
2023/12/14 06:09:24;;;;;;;5.30;4.90;;;3.10;25.30;;;;;;4948320;28;20582;-61
2023/12/14 06:11:51;;;;;;;7.13;5.70;;;3.10;25.80;;;;;;4959733;28;20496;-61
2023/12/14 06:14:18;;;;;;;5.87;5.30;;;3.10;27.00;;;;;;4948414;28;21039;-60
2023/12/14 06:16:44;;;;;;;6.63;5.70;;;3.10;26.80;;;;;;4946152;28;20467;-59
2023/12/14 06:19:11;;;;;;;5.33;4.93;;;3.10;26.00;;;;;;4955765;28;20984;-60
2023/12/14 06:21:37;;;;;;;5.40;4.87;;;3.20;25.80;;;;;;4948464;28;20503;-60
2023/12/14 06:24:06;;;;;;;5.53;5.13;;;3.20;27.30;;;;;;4948692;28;20463;-58
2023/12/14 06:26:32;;;;;;;5.97;5.47;;;3.30;28.10;;;;;;4950615;28;20465;-60
2023/12/14 06:28:59;;;;;;;6.87;6.20;;;3.30;28.90;;;;;;4946615;28;20935;-60
2023/12/14 06:31:25;;;;;;;6.70;6.10;;;3.40;29.20;;;;;;4952776;28;20519;-60
2023/12/14 06:33:52;;;;;;;6.50;5.67;;;3.30;30.90;;;;;;4954428;28;20470;-61
2023/12/14 06:36:19;;;;;;;6.67;6.07;;;3.30;30.40;;;;;;4950030;28;20490;-59
2023/12/14 06:38:46;;;;;;;6.93;6.13;;;3.30;31.80;;;;;;4949967;28;20492;-59
2023/12/14 06:41:23;;;;;;;12.10;6.73;;;3.20;32.20;;;;;;4944554;28;21231;-60
2023/12/14 06:43:50;;;;;;;11.93;7.70;;;3.20;32.20;;;;;;4947729;28;20466;-60
2023/12/14 06:46:16;;;;;;;8.80;7.90;;;3.20;32.40;;;;;;4954587;29;20501;-60
2023/12/14 06:48:43;;;;;;;8.13;7.27;;;3.20;32.10;;;;;;4960768;28;20524;-60
2023/12/14 06:51:10;;;;;;;9.73;8.60;;;3.20;30.90;;;;;;4944842;29;20486;-59
2023/12/14 06:53:37;;;;;;;12.00;9.13;;;3.20;30.90;;;;;;4952524;29;20961;-59
2023/12/14 06:56:04;;;;;;;8.00;7.20;;;3.20;31.00;;;;;;4957381;28;20533;-60
2023/12/14 06:58:32;;;;;;;9.03;7.30;;;3.30;30.10;;;;;;4956535;28;20505;-60
2023/12/14 07:00:59;;;;;;;9.93;7.03;;;3.30;30.80;;;;;;4947243;28;20517;-60
2023/12/14 07:03:25;;;;;;;12.30;6.80;;;3.20;30.70;;;;;;4941726;29;20467;-60
2023/12/14 07:05:52;;;;;;;9.60;7.03;;;3.30;31.60;;;;;;4947058;28;20530;-61
2023/12/14 07:08:18;;;;;;;9.20;7.80;;;3.30;31.60;;;;;;4953573;29;20474;-60
2023/12/14 07:10:45;;;;;;;8.17;7.30;;;3.30;32.60;;;;;;4950976;29;20450;-60
2023/12/14 07:13:11;;;;;;;7.80;7.07;;;3.30;32.80;;;;;;4956620;28;20437;-60
2023/12/14 07:15:39;;;;;;;7.03;6.43;;;3.30;33.70;;;;;;4954528;28;20501;-61
2023/12/14 07:18:06;;;;;;;8.67;7.77;;;3.30;32.90;;;;;;4952256;28;20508;-60
2023/12/14 07:20:32;;;;;;;9.13;7.70;;;3.30;33.30;;;;;;4948331;28;21085;-59
2023/12/14 07:22:59;;;;;;;9.93;8.00;;;3.30;35.70;;;;;;4941379;28;20471;-60
2023/12/14 07:25:26;;;;;;;9.27;7.87;;;3.30;34.10;;;;;;4956670;28;20516;-60
2023/12/14 07:27:52;;;;;;;9.37;8.27;;;3.30;33.70;;;;;;4947522;28;20635;-60
2023/12/14 07:30:19;;;;;;;10.03;7.37;;;3.30;36.60;;;;;;4956517;28;20473;-60
2023/12/14 07:32:47;;;;;;;9.40;7.77;;;3.30;39.90;;;;;;4950950;28;20557;-60
2023/12/14 07:35:13;;;;;;;10.90;8.70;;;3.30;38.30;;;;;;4952948;28;20522;-60
2023/12/14 07:37:40;;;;;;;9.33;8.30;;;3.30;38.60;;;;;;4957276;28;20516;-60
2023/12/14 07:40:08;;;;;;;8.87;7.23;;;3.40;36.90;;;;;;4952192;28;20493;-60
2023/12/14 07:42:34;;;;;;;9.17;7.73;;;3.40;36.70;;;;;;4954952;28;20806;-60
2023/12/14 07:45:01;;;;;;;12.03;9.07;;;3.40;37.50;;;;;;4957650;28;20450;-60
2023/12/14 07:47:27;;;;;;;9.57;8.67;;;3.40;37.90;;;;;;4942372;28;20474;-60
2023/12/14 07:49:55;;;;;;;8.80;7.90;;;3.40;38.80;;;;;;4951576;28;20449;-60
2023/12/14 07:52:22;;;;;;;10.13;8.63;;;3.40;39.50;;;;;;4954328;28;20465;-60
2023/12/14 07:54:48;;;;;;;9.03;8.13;;;3.40;40.90;;;;;;4953579;28;20474;-60
2023/12/14 07:57:15;;;;;;;9.10;8.20;;;3.40;41.50;;;;;;4953492;28;20523;-60
2023/12/14 07:59:41;;;;;;;10.17;9.07;;;3.40;42.40;;;;;;4955457;28;20478;-60
2023/12/14 08:02:08;;;;;;;11.77;9.73;;;3.40;41.40;;;;;;4952236;28;20470;-60
2023/12/14 08:04:34;;;;;;;13.30;9.80;;;3.40;43.90;;;;;;4953669;28;20960;-60
2023/12/14 08:07:02;;;;;;;12.03;10.23;;;3.40;46.00;;;;;;4940371;28;20952;-60
2023/12/14 08:09:29;;;;;;;10.60;9.50;;;3.40;47.90;;;;;;4950181;28;20454;-61
2023/12/14 08:11:56;;;;;;;11.37;10.17;;;3.40;46.10;;;;;;4946931;28;20553;-61
2023/12/14 08:14:22;;;;;;;11.43;10.23;;;3.40;46.80;;;;;;4951670;28;20541;-60
2023/12/14 08:16:49;;;;;;;11.70;10.50;;;3.40;47.20;;;;;;4941044;28;20491;-59
2023/12/14 08:19:15;;;;;;;10.00;9.10;;;3.40;46.90;;;;;;4941747;28;20547;-59
2023/12/14 08:21:42;;;;;;;10.65;9.55;;;3.40;47.30;;;;;;4949754;28;20492;-60
2023/12/14 08:24:10;;;;;;;11.00;9.90;;;3.40;47.30;;;;;;4950768;28;20343;-59
2023/12/14 08:26:36;;;;;;;9.70;8.80;;;3.40;45.10;;;;;;4951994;28;20452;-59
2023/12/14 08:29:03;;;;;;;10.20;9.10;;;3.40;49.80;;;;;;4942116;28;20526;-59
2023/12/14 08:31:29;;;;;;;9.80;8.87;;;3.40;46.00;;;;;;4931514;28;20491;-60
2023/12/14 08:33:56;;;;;;;10.33;9.33;;;3.50;44.70;;;;;;4931443;28;20493;-60
2023/12/14 08:36:22;;;;;;;11.30;9.93;;;3.50;46.60;;;;;;4933182;28;20590;-58
2023/12/14 08:38:49;;;;;;;11.50;9.37;;;3.40;48.50;;;;;;4946075;28;20490;-59
2023/12/14 08:41:17;;;;;;;11.43;9.40;;;3.40;49.00;;;;;;4958374;28;21078;-60
2023/12/14 08:43:43;;;;;;;13.40;10.23;;;3.40;52.00;;;;;;4957442;28;20477;-58
2023/12/14 08:46:10;;;;;;;8.90;8.07;;;3.40;51.30;;;;;;4945198;28;20529;-60
2023/12/14 08:48:37;;;;;;;12.07;9.37;;;3.40;52.10;;;;;;4961343;28;20485;-59
2023/12/14 08:51:04;;;;;;;10.60;9.60;;;3.40;53.20;;;;;;4958659;28;20521;-60
2023/12/14 08:53:31;;;;;;;10.07;9.00;;;3.40;54.00;;;;;;4957812;28;20710;-60
2023/12/14 08:55:58;;;;;;;11.30;10.17;;;3.40;53.20;;;;;;4952397;28;20827;-59
2023/12/14 08:58:25;;;;;;;11.67;10.37;;;3.50;52.60;;;;;;4951697;28;20557;-60
2023/12/14 09:00:52;;;;;;;12.10;9.40;;;3.50;51.90;;;;;;4945945;28;20497;-60
2023/12/14 09:03:19;;;;;;;11.73;10.33;;;3.40;55.00;;;;;;4954606;28;20516;-60
2023/12/14 09:05:45;;;;;;;11.57;10.37;;;3.50;54.70;;;;;;4944075;28;20474;-60
2023/12/14 09:08:12;;;;;;;12.27;10.03;;;3.50;59.30;;;;;;4946824;28;20913;-60
2023/12/14 09:10:39;;;;;;;11.07;9.70;;;3.50;57.30;;;;;;4950151;28;20510;-59
2023/12/14 09:13:06;;;;;;;13.00;9.90;;;3.50;57.30;;;;;;4951315;28;20462;-59
2023/12/14 09:15:34;;;;;;;10.43;9.30;;;3.60;55.80;;;;;;4951156;28;20462;-60
2023/12/14 09:18:01;;;;;;;10.53;9.47;;;3.50;62.80;;;;;;4954061;28;20905;-59
2023/12/14 09:20:28;;;;;;;10.80;9.70;;;3.40;60.90;;;;;;4950483;28;20558;-59
2023/12/14 09:22:54;;;;;;;23.50;10.40;;;3.50;61.40;;;;;;4957301;28;20510;-60
2023/12/14 09:25:21;;;;;;;10.87;9.77;;;3.50;61.50;;;;;;4946707;28;20963;-60
2023/12/14 09:27:48;;;;;;;11.10;10.00;;;3.50;61.40;;;;;;4952733;28;20541;-59
2023/12/14 09:30:17;;;;;;;10.87;9.50;;;3.50;65.60;;;;;;4955285;28;20815;-60
2023/12/14 09:32:45;;;;;;;13.30;10.00;;;3.40;65.90;;;;;;4956678;28;20556;-60
2023/12/14 09:35:11;;;;;;;11.67;10.00;;;3.50;65.50;;;;;;4952942;28;20458;-60
2023/12/14 09:37:38;;;;;;;12.57;10.37;;;3.50;62.40;;;;;;4968425;28;20531;-59
2023/12/14 09:40:06;;;;;;;13.60;11.53;;;3.40;72.70;;;;;;4965022;28;20493;-60
2023/12/14 09:42:38;;;;;;;11.07;9.93;;;3.50;68.50;;;;;;4956805;28;20466;-58
2023/12/14 09:45:07;;;;;;;15.03;11.20;;;3.50;67.20;;;;;;4964299;28;20465;-60
2023/12/14 09:47:34;;;;;;;11.20;10.00;;;3.50;69.70;;;;;;4948864;28;20477;-59
2023/12/14 09:50:03;;;;;;;10.97;9.87;;;3.50;65.40;;;;;;4958071;28;20943;-59
2023/12/14 09:52:29;;;;;;;12.60;11.10;;;3.60;65.80;;;;;;4941260;28;20543;-61
2023/12/14 09:54:56;;;;;;;14.73;10.57;;;3.60;65.00;;;;;;4939431;28;20491;-60
2023/12/14 09:57:23;;;;;;;11.47;10.23;;;3.60;65.20;;;;;;4957359;28;20961;-60
2023/12/14 09:59:52;;;;;;;17.97;12.53;;;3.60;65.60;;;;;;4957021;28;20474;-60
2023/12/14 10:02:19;;;;;;;11.23;9.63;;;3.60;68.70;;;;;;4951375;28;20489;-60
2023/12/14 10:04:47;;;;;;;13.50;11.10;;;3.60;68.70;;;;;;4949414;28;20462;-60
2023/12/14 10:07:16;;;;;;;10.53;8.87;;;3.70;72.60;;;;;;4947871;28;20490;-60
2023/12/14 10:09:43;;;;;;;11.27;9.37;;;3.60;73.60;;;;;;4957604;28;20955;-59
2023/12/14 10:12:12;;;;;;;10.10;9.10;;;3.70;73.90;;;;;;4948404;28;20562;-59
2023/12/14 10:14:39;;;;;;;9.80;8.83;;;3.70;72.20;;;;;;4952265;28;20462;-59
2023/12/14 10:17:17;;;;;;;11.23;8.30;;;3.70;74.90;;;;;;4953046;28;21031;-59
2023/12/14 10:19:44;;;;;;;10.67;9.57;;;3.70;74.80;;;;;;4953572;28;20485;-58
2023/12/14 10:22:11;;;;;;;11.30;9.57;;;3.70;74.60;;;;;;4950940;28;20495;-59
2023/12/14 10:24:40;;;;;;;9.10;8.30;;;3.80;74.40;;;;;;4952233;28;20890;-59
2023/12/14 10:27:07;;;;;;;10.33;9.23;;;3.70;74.30;;;;;;4952330;28;20897;-60
2023/12/14 10:29:35;;;;;;;9.17;8.27;;;3.70;76.10;;;;;;4952869;28;20485;-60
2023/12/14 10:32:06;;;;;;;10.70;9.60;;;3.70;76.30;;;;;;4960033;28;20448;-60
2023/12/14 10:34:33;;;;;;;9.33;8.43;;;3.70;75.50;;;;;;4953003;28;20888;-60
2023/12/14 10:37:00;;;;;;;9.60;8.70;;;3.70;77.50;;;;;;4956859;28;20520;-60
2023/12/14 10:39:27;;;;;;;9.83;8.57;;;3.70;78.10;;;;;;4960899;28;20481;-59
2023/12/14 10:41:57;;;;;;;9.77;8.77;;;3.70;79.90;;;;;;4952259;28;20486;-59
2023/12/14 10:44:28;;;;;;;9.33;8.43;;;3.70;78.10;;;;;;4955673;28;21023;-59
2023/12/14 10:46:56;;;;;;;9.80;8.20;;;3.70;81.70;;;;;;4950128;28;20810;-60
2023/12/14 10:49:24;;;;;;;9.13;8.17;;;3.80;80.80;;;;;;4955148;28;20445;-58
2023/12/14 10:51:51;;;;;;;11.80;8.10;;;3.70;83.60;;;;;;4949636;28;21039;-60
2023/12/14 10:54:19;;;;;;;10.03;9.00;;;3.80;75.30;;;;;;4952040;28;20470;-59
2023/12/14 10:56:45;;;;;;;9.20;8.03;;;3.80;79.90;;;;;;4948718;28;20479;-60
2023/12/14 10:59:16;;;;;;;10.90;8.50;;;3.90;79.20;;;;;;4948958;28;20482;-59
2023/12/14 11:01:42;;;;;;;10.90;9.43;;;3.90;84.70;;;;;;4949878;28;20561;-60
2023/12/14 11:04:13;;;;;;;11.00;7.90;;;3.90;87.80;;;;;;4940302;28;20492;-59
2023/12/14 11:06:42;;;;;;;8.53;7.73;;;3.90;92.70;;;;;;4952610;28;20465;-60
2023/12/14 11:09:14;;;;;;;11.73;8.37;;;3.90;95.20;;;;;;4958807;28;20450;-59
2023/12/14 11:11:43;;;;;;;9.90;8.60;;;4.00;94.00;;;;;;4955986;28;20444;-60
2023/12/14 11:14:12;;;;;;;9.77;8.73;;;3.80;99.90;;;;;;4961169;28;20944;-59
2023/12/14 11:16:44;;;;;;;9.23;8.20;;;3.90;99.90;;;;;;4950223;28;20452;-59
2023/12/14 11:19:28;;;;;;;8.20;7.40;;;4.00;99.90;;;;;;4965147;28;20482;-58
2023/12/14 11:22:14;;;;;;;8.63;7.73;;;4.00;99.90;;;;;;4952102;28;20532;-59
2023/12/14 11:24:43;;;;;;;9.20;8.20;;;4.00;99.90;;;;;;4953282;28;20478;-59
2023/12/14 11:27:10;;;;;;;10.83;8.30;;;4.00;99.90;;;;;;4978098;23;20446;-54
2023/12/14 11:29:37;;;;;;;8.60;7.80;;;4.00;99.90;;;;;;4986563;28;20477;-53
2023/12/14 11:32:06;;;;;;;8.47;7.37;;;4.10;99.90;;;;;;4989528;28;20444;-52
2023/12/14 11:34:33;;;;;;;8.70;7.80;;;4.10;97.10;;;;;;4991740;28;21008;-53
2023/12/14 11:37:00;;;;;;;9.50;8.53;;;4.20;96.60;;;;;;4990632;28;20538;-53
2023/12/14 11:39:31;;;;;;;8.60;6.63;;;4.10;98.40;;;;;;4993632;28;20445;-53
2023/12/14 11:42:01;;;;;;;9.77;8.03;;;4.20;98.20;;;;;;4993685;28;20548;-53
2023/12/14 11:44:27;;;;;;;8.80;7.90;;;4.10;99.90;;;;;;4993959;28;20844;-53
2023/12/14 11:46:54;;;;;;;9.33;7.73;;;4.10;99.90;;;;;;4990093;28;20491;-53
2023/12/14 11:49:28;;;;;;;8.73;7.93;;;4.10;99.90;;;;;;4991143;28;20461;-57
2023/12/14 11:51:56;;;;;;;9.13;8.23;;;4.00;99.90;;;;;;4986256;28;20965;-54
2023/12/14 11:54:23;;;;;;;9.07;8.17;;;4.00;99.90;;;;;;4984333;28;20464;-52
2023/12/14 11:56:51;;;;;;;9.27;8.30;;;4.10;97.80;;;;;;4985049;28;20468;-53
2023/12/14 11:59:18;;;;;;;10.00;8.93;;;4.10;94.50;;;;;;4979500;28;20532;-52
2023/12/14 12:01:56;;;;;;;9.40;8.50;;;4.10;96.80;;;;;;4985036;28;20484;-53
2023/12/14 12:04:24;;;;;;;9.03;8.13;;;4.20;96.20;;;;;;4982987;28;20446;-53
2023/12/14 12:06:59;;;;;;;8.60;7.70;;;4.10;99.90;;;;;;4987843;28;20448;-53
2023/12/14 12:09:36;;;;;;;9.77;8.70;;;4.10;99.90;;;;;;4987467;28;20459;-52
2023/12/14 12:12:06;;;;;;;8.57;7.77;;;4.10;99.90;;;;;;4993143;28;20443;-54
2023/12/14 12:14:33;;;;;;;9.63;8.73;;;4.10;99.90;;;;;;4990572;28;20850;-53
2023/12/14 12:17:00;;;;;;;10.37;8.57;;;4.10;99.90;;;;;;4988686;28;20441;-51
2023/12/14 12:19:27;;;;;;;10.47;9.20;;;4.10;97.10;;;;;;4990795;28;20503;-54
2023/12/14 12:21:54;;;;;;;8.90;8.00;;;4.10;98.50;;;;;;4991900;28;20531;-54
2023/12/14 12:24:21;;;;;;;12.33;9.00;;;4.10;99.00;;;;;;4984494;28;20963;-53
2023/12/14 12:26:48;;;;;;;8.43;7.60;;;4.10;99.00;;;;;;4988980;28;20520;-54
2023/12/14 12:29:14;;;;;;;10.10;7.73;;;4.00;99.90;;;;;;4984141;28;20453;-53
2023/12/14 12:31:42;;;;;;;9.30;7.40;;;4.00;99.90;;;;;;4985368;28;20789;-54
2023/12/14 12:34:09;;;;;;;8.70;7.90;;;4.00;99.90;;;;;;4986877;28;20472;-53
2023/12/14 12:36:36;;;;;;;8.57;7.73;;;4.00;99.90;;;;;;4985806;28;20528;-53
2023/12/14 12:39:05;;;;;;;8.37;7.60;;;4.00;95.90;;;;;;4991760;28;20530;-53
2023/12/14 12:41:32;;;;;;;9.67;8.27;;;4.00;97.70;;;;;;4991600;28;20867;-53
2023/12/14 12:43:59;;;;;;;9.57;8.63;;;4.00;96.30;;;;;;4989977;28;20805;-54
2023/12/14 12:46:25;;;;;;;8.03;7.23;;;4.00;95.70;;;;;;4982183;28;20484;-53
2023/12/14 12:48:52;;;;;;;8.23;7.43;;;4.00;92.00;;;;;;4989815;28;21040;-53
2023/12/14 12:51:18;;;;;;;8.50;7.63;;;4.00;93.80;;;;;;4991081;28;20437;-53
2023/12/14 12:53:46;;;;;;;8.60;7.80;;;4.00;95.30;;;;;;4991592;28;20448;-53